Time;durP1;ratioP1;P1;durP2;ratioP2;P2;SDS_P1;SDS_P2;PMS_P1;PMS_P2;Temp;Humidity;BMP_temperature;BMP_pressure;BME280_temperature;BME280_humidity;BME280_pressure;Samples;Min_cycle;Max_cycle;Signal;HPM_P1;HPM_P2
2022/01/20 00:01:44;;;;;;;0.20;0.20;;;;;25.80;100533.00;;;;5109516;28;20056;-76
2022/01/20 00:04:24;;;;;;;0.10;0.10;;;;;25.80;100528.00;;;;5109858;28;20043;-78
2022/01/20 00:26:16;;;;;;;0.38;0.20;;;;;25.50;100541.00;;;;5087980;28;20131;-78
2022/01/20 00:28:52;;;;;;;0.00;0.00;;;;;25.50;100538.00;;;;5089263;28;20058;-78
2022/01/20 00:31:46;;;;;;;0.00;0.00;;;;;25.40;100531.00;;;;5089457;28;20048;-77
2022/01/20 00:34:31;;;;;;;0.00;0.00;;;;;25.40;100546.00;;;;5088691;28;20055;-76
2022/01/20 00:37:16;;;;;;;0.00;0.00;;;;;25.30;100529.00;;;;5108236;28;20039;-77
2022/01/20 00:39:46;;;;;;;0.00;0.00;;;;;25.30;100531.00;;;;5107725;28;20055;-77
2022/01/20 00:42:17;;;;;;;0.00;0.00;;;;;25.20;100547.00;;;;5109015;28;20046;-75
2022/01/20 00:44:47;;;;;;;0.00;0.00;;;;;25.30;100547.00;;;;5109024;28;20036;-77
2022/01/20 00:47:17;;;;;;;0.05;0.05;;;;;25.30;100545.00;;;;5108654;28;20054;-77
2022/01/20 00:49:47;;;;;;;0.00;0.00;;;;;25.30;100557.00;;;;5107064;28;20763;-75
2022/01/20 00:52:17;;;;;;;0.10;0.10;;;;;25.20;100561.00;;;;5108219;28;20052;-76
2022/01/20 00:54:47;;;;;;;0.00;0.00;;;;;25.00;100569.00;;;;5108666;28;20093;-77
2022/01/20 00:57:17;;;;;;;0.00;0.00;;;;;24.90;100571.00;;;;5106950;28;20051;-75
2022/01/20 00:59:46;;;;;;;0.60;0.60;;;;;24.90;100559.00;;;;5107810;28;20121;-75
2022/01/20 01:02:16;;;;;;;0.15;0.10;;;;;24.90;100560.00;;;;5107762;28;20050;-75
2022/01/20 01:04:45;;;;;;;0.00;0.00;;;;;24.80;100550.00;;;;5107822;28;20089;-75
2022/01/20 01:09:51;;;;;;;0.00;0.00;;;;;24.60;100576.00;;;;5106480;28;20048;-75
2022/01/20 01:12:32;;;;;;;0.68;0.68;;;;;24.60;100545.00;;;;5107633;28;20544;-75
2022/01/20 01:15:06;;;;;;;0.00;0.00;;;;;24.60;100570.00;;;;5107841;28;20109;-75
2022/01/20 01:20:26;;;;;;;0.00;0.00;;;;;24.50;100575.00;;;;5107161;28;20046;-75
2022/01/20 01:22:56;;;;;;;0.00;0.00;;;;;24.50;100573.00;;;;5108203;28;20456;-75
2022/01/20 01:25:47;;;;;;;0.00;0.00;;;;;24.50;100581.00;;;;5105904;28;20517;-75
2022/01/20 01:28:18;;;;;;;0.00;0.00;;;;;24.50;100577.00;;;;5105765;28;20055;-75
2022/01/20 01:31:21;;;;;;;0.00;0.00;;;;;24.50;100570.00;;;;5105778;28;20115;-75
2022/01/20 01:33:55;;;;;;;;;;;;;24.30;100582.00;;;;5106659;28;20062;-75
2022/01/20 01:36:28;;;;;;;0.10;0.10;;;;;24.20;100580.00;;;;5105955;28;19928;-75
2022/01/20 01:39:00;;;;;;;0.00;0.00;;;;;24.20;100571.00;;;;5105872;28;20044;-76
2022/01/20 01:41:35;;;;;;;0.10;0.10;;;;;24.10;100570.00;;;;5106143;28;20043;-75
2022/01/20 01:44:08;;;;;;;0.00;0.00;;;;;24.10;100579.00;;;;5105498;28;20044;-76
2022/01/20 01:46:40;;;;;;;0.10;0.10;;;;;24.10;100581.00;;;;5106163;28;20131;-77
2022/01/20 01:49:09;;;;;;;0.28;0.28;;;;;24.10;100570.00;;;;5106027;28;20039;-76
2022/01/20 01:51:39;;;;;;;0.00;0.00;;;;;24.00;100552.00;;;;5105313;28;20055;-76
2022/01/20 01:54:11;;;;;;;0.00;0.00;;;;;24.10;100563.00;;;;5105536;28;20147;-77
2022/01/20 01:56:42;;;;;;;0.00;0.00;;;;;24.10;100561.00;;;;5106087;28;20047;-76
2022/01/20 01:59:14;;;;;;;0.10;0.10;;;;;24.10;100567.00;;;;5106208;28;20048;-76
2022/01/20 02:02:10;;;;;;;0.00;0.00;;;;;24.10;100561.00;;;;5089396;28;20059;-77
2022/01/20 02:04:43;;;;;;;0.00;0.00;;;;;24.00;100563.00;;;;5106034;28;20047;-76
2022/01/20 02:18:54;;;;;;;0.00;0.00;;;;;24.10;100540.00;;;;5105547;28;20047;-76
2022/01/20 02:21:50;;;;;;;0.00;0.00;;;;;24.10;100535.00;;;;5105494;28;20044;-76
2022/01/20 02:24:23;;;;;;;0.15;0.15;;;;;24.30;100536.00;;;;5104830;28;20168;-76
2022/01/20 02:26:53;;;;;;;0.60;0.20;;;;;24.20;100543.00;;;;5106470;28;20498;-77
2022/01/20 02:29:27;;;;;;;0.00;0.00;;;;;24.10;100544.00;;;;5105246;28;20047;-77
2022/01/20 02:32:00;;;;;;;0.00;0.00;;;;;24.10;100536.00;;;;5105594;28;20055;-77
2022/01/20 02:34:31;;;;;;;0.00;0.00;;;;;24.10;100533.00;;;;5105183;28;20093;-77
2022/01/20 02:37:06;;;;;;;0.00;0.00;;;;;24.10;100545.00;;;;5105185;28;20451;-76
2022/01/20 02:44:56;;;;;;;0.35;0.32;;;;;24.10;100526.00;;;;5105468;28;20482;-77
2022/01/20 02:47:35;;;;;;;0.10;0.10;;;;;24.10;100524.00;;;;5105209;28;20452;-77
2022/01/20 02:50:05;;;;;;;0.10;0.10;;;;;24.20;100530.00;;;;5106493;28;20046;-77
2022/01/20 02:52:37;;;;;;;0.57;0.38;;;;;24.40;100519.00;;;;5104324;28;20059;-76
2022/01/20 02:55:08;;;;;;;0.00;0.00;;;;;24.40;100521.00;;;;5105172;28;20425;-76
2022/01/20 02:57:37;;;;;;;0.10;0.10;;;;;24.40;100525.00;;;;5105357;28;20145;-77
2022/01/20 03:00:08;;;;;;;0.00;0.00;;;;;24.50;100523.00;;;;5106396;28;20048;-75
2022/01/20 03:02:39;;;;;;;2.63;1.15;;;;;24.50;100511.00;;;;5104691;28;20052;-75
2022/01/20 03:05:11;;;;;;;0.00;0.00;;;;;24.50;100517.00;;;;5107171;28;20048;-77
2022/01/20 03:07:45;;;;;;;0.10;0.00;;;;;24.30;100506.00;;;;5105223;28;20526;-77
2022/01/20 03:10:17;;;;;;;0.00;0.00;;;;;24.20;100494.00;;;;5106963;28;20510;-76
2022/01/20 03:12:46;;;;;;;;;;;;;24.20;100510.00;;;;5107437;28;20051;-76
2022/01/20 03:15:15;;;;;;;0.00;0.00;;;;;24.20;100495.00;;;;5106575;28;19924;-77
2022/01/20 03:17:45;;;;;;;0.00;0.00;;;;;24.10;100499.00;;;;5105356;28;20081;-76
2022/01/20 03:20:15;;;;;;;0.00;0.00;;;;;24.00;100504.00;;;;5104844;28;20047;-77
2022/01/20 03:22:44;;;;;;;0.00;0.00;;;;;24.00;100498.00;;;;5105278;28;20440;-76
2022/01/20 03:25:14;;;;;;;0.00;0.00;;;;;24.00;100495.00;;;;5110115;28;20067;-76
2022/01/20 03:27:43;;;;;;;0.00;0.00;;;;;24.00;100498.00;;;;5109202;28;20564;-76
2022/01/20 03:30:14;;;;;;;0.10;0.10;;;;;24.00;100491.00;;;;5110985;28;20062;-76
2022/01/20 03:32:44;;;;;;;0.00;0.00;;;;;23.90;100482.00;;;;5107702;28;20221;-76
2022/01/20 03:35:16;;;;;;;0.00;0.00;;;;;23.90;100497.00;;;;5106334;28;20051;-76
2022/01/20 03:38:00;;;;;;;0.00;0.00;;;;;23.90;100492.00;;;;5104781;28;20108;-77
2022/01/20 03:40:30;;;;;;;0.00;0.00;;;;;23.80;100501.00;;;;5107551;28;20043;-76
2022/01/20 03:42:59;;;;;;;0.10;0.10;;;;;23.90;100508.00;;;;5108444;28;20078;-76
2022/01/20 03:45:29;;;;;;;0.00;0.00;;;;;23.90;100507.00;;;;5108912;28;20050;-77
2022/01/20 03:48:07;;;;;;;0.00;0.00;;;;;23.90;100501.00;;;;5108236;28;20082;-76
2022/01/20 03:53:31;;;;;;;0.00;0.00;;;;;23.80;100500.00;;;;5108223;28;20894;-76
2022/01/20 03:56:01;;;;;;;0.00;0.00;;;;;23.90;100488.00;;;;5108535;28;20074;-76
2022/01/20 03:58:40;;;;;;;0.00;0.00;;;;;23.80;100483.00;;;;5107783;28;20044;-76
2022/01/20 04:01:15;;;;;;;0.00;0.00;;;;;23.80;100477.00;;;;5108042;28;20074;-76
2022/01/20 04:04:14;;;;;;;0.00;0.00;;;;;23.80;100461.00;;;;5087465;28;20147;-77
2022/01/20 04:06:57;;;;;;;0.00;0.00;;;;;23.80;100460.00;;;;5108064;28;20055;-77
2022/01/20 04:09:26;;;;;;;0.00;0.00;;;;;23.80;100465.00;;;;5107861;28;20067;-76
2022/01/20 04:11:56;;;;;;;0.00;0.00;;;;;23.80;100453.00;;;;5107941;28;20391;-76
2022/01/20 04:14:28;;;;;;;0.00;0.00;;;;;23.70;100441.00;;;;5109740;28;20506;-76
2022/01/20 04:17:06;;;;;;;0.00;0.00;;;;;23.70;100433.00;;;;5108330;28;20521;-76
2022/01/20 04:19:35;;;;;;;0.00;0.00;;;;;23.60;100433.00;;;;5107558;28;20075;-76
2022/01/20 04:22:05;;;;;;;0.00;0.00;;;;;23.60;100431.00;;;;5110261;28;20039;-77
2022/01/20 04:24:34;;;;;;;1.45;1.10;;;;;23.60;100433.00;;;;5109368;28;20050;-76
2022/01/20 04:27:05;;;;;;;0.10;0.10;;;;;23.60;100442.00;;;;5109240;28;20048;-77
2022/01/20 04:29:37;;;;;;;0.00;0.00;;;;;23.60;100440.00;;;;5109087;28;20505;-76
2022/01/20 04:32:07;;;;;;;0.00;0.00;;;;;23.50;100456.00;;;;5107426;28;20555;-76
2022/01/20 04:34:37;;;;;;;0.00;0.00;;;;;23.50;100444.00;;;;5107260;28;20055;-77
2022/01/20 04:37:08;;;;;;;0.10;0.10;;;;;23.60;100453.00;;;;5091551;28;20084;-76
2022/01/20 04:39:44;;;;;;;0.00;0.00;;;;;23.50;100454.00;;;;5107330;28;20365;-76
2022/01/20 04:42:14;;;;;;;0.10;0.10;;;;;23.50;100454.00;;;;5108541;28;20040;-77
2022/01/20 04:44:53;;;;;;;0.00;0.00;;;;;23.50;100454.00;;;;5106614;28;20051;-77
2022/01/20 04:58:52;;;;;;;0.00;0.00;;;;;23.40;100421.00;;;;5107093;28;20562;-76
2022/01/20 05:01:21;;;;;;;0.00;0.00;;;;;23.40;100436.00;;;;5109003;28;20454;-76
2022/01/20 05:04:11;;;;;;;0.00;0.00;;;;;23.30;100426.00;;;;5107121;28;20151;-76
2022/01/20 05:07:02;;;;;;;0.00;0.00;;;;;23.30;100436.00;;;;5100210;28;20067;-76
2022/01/20 05:09:32;;;;;;;0.00;0.00;;;;;23.30;100430.00;;;;5106262;28;20077;-76
2022/01/20 05:12:09;;;;;;;0.00;0.00;;;;;23.30;100417.00;;;;5107161;28;20055;-76
2022/01/20 05:14:41;;;;;;;0.00;0.00;;;;;23.20;100422.00;;;;5107081;28;20105;-77
2022/01/20 05:17:11;;;;;;;0.00;0.00;;;;;23.20;100412.00;;;;5107515;28;20054;-76
2022/01/20 05:19:42;;;;;;;0.00;0.00;;;;;23.10;100419.00;;;;5106591;28;20147;-76
2022/01/20 05:22:12;;;;;;;0.00;0.00;;;;;23.20;100415.00;;;;5106752;28;20055;-77
2022/01/20 05:24:51;;;;;;;0.00;0.00;;;;;23.10;100409.00;;;;5107322;28;20039;-76
2022/01/20 05:27:21;;;;;;;0.00;0.00;;;;;23.10;100407.00;;;;5106531;28;20047;-77
2022/01/20 05:29:50;;;;;;;0.00;0.00;;;;;23.10;100410.00;;;;5105836;28;20399;-76
2022/01/20 05:32:20;;;;;;;0.00;0.00;;;;;23.00;100408.00;;;;5106916;28;20071;-77
2022/01/20 05:34:50;;;;;;;0.00;0.00;;;;;23.00;100412.00;;;;5106303;28;20055;-77
2022/01/20 05:37:20;;;;;;;0.00;0.00;;;;;23.00;100423.00;;;;5106528;28;20063;-77
2022/01/20 05:39:50;;;;;;;0.00;0.00;;;;;23.00;100417.00;;;;5106749;28;20047;-76
2022/01/20 05:42:26;;;;;;;0.00;0.00;;;;;23.00;100421.00;;;;5106608;28;20096;-76
2022/01/20 05:45:06;;;;;;;0.00;0.00;;;;;23.00;100419.00;;;;5105486;28;20051;-78
2022/01/20 05:47:43;;;;;;;0.00;0.00;;;;;22.90;100418.00;;;;5107030;28;20047;-76
2022/01/20 05:50:22;;;;;;;0.00;0.00;;;;;22.80;100423.00;;;;5107578;28;20040;-75
2022/01/20 05:52:52;;;;;;;0.00;0.00;;;;;22.80;100415.00;;;;5106540;28;20043;-77
2022/01/20 05:55:22;;;;;;;0.00;0.00;;;;;22.80;100409.00;;;;5107136;28;20490;-76
2022/01/20 05:57:52;;;;;;;0.00;0.00;;;;;22.80;100393.00;;;;5106056;28;20055;-76
2022/01/20 06:00:23;;;;;;;0.00;0.00;;;;;22.80;100397.00;;;;5107755;28;20047;-76
2022/01/20 06:05:49;;;;;;;0.08;0.08;;;;;22.80;100393.00;;;;5105865;28;20047;-76
2022/01/20 06:08:19;;;;;;;0.00;0.00;;;;;22.80;100399.00;;;;5107796;28;20055;-76
2022/01/20 06:10:49;;;;;;;0.00;0.00;;;;;22.80;100399.00;;;;5107834;28;20039;-77
2022/01/20 06:13:27;;;;;;;0.00;0.00;;;;;22.80;100396.00;;;;5106202;28;20427;-75
2022/01/20 06:15:57;;;;;;;0.00;0.00;;;;;22.80;100403.00;;;;5105587;28;20513;-76
2022/01/20 06:18:27;;;;;;;0.00;0.00;;;;;22.80;100395.00;;;;5107058;28;20421;-76
2022/01/20 06:20:58;;;;;;;0.00;0.00;;;;;22.80;100398.00;;;;5105940;28;20093;-76
2022/01/20 06:23:28;;;;;;;0.00;0.00;;;;;22.70;100407.00;;;;5105647;28;20050;-76
2022/01/20 06:25:57;;;;;;;0.00;0.00;;;;;22.80;100399.00;;;;5105821;28;20048;-77
2022/01/20 06:28:27;;;;;;;0.00;0.00;;;;;22.70;100410.00;;;;5106054;28;20051;-75
2022/01/20 06:30:56;;;;;;;0.00;0.00;;;;;22.70;100410.00;;;;5105423;28;20536;-76
2022/01/20 06:33:26;;;;;;;0.00;0.00;;;;;22.70;100403.00;;;;5089427;28;20063;-75
2022/01/20 06:35:57;;;;;;;0.00;0.00;;;;;22.70;100409.00;;;;5105383;28;20096;-76
2022/01/20 06:38:29;;;;;;;0.00;0.00;;;;;22.60;100402.00;;;;5105372;28;20093;-76
2022/01/20 06:40:59;;;;;;;;;;;;;22.60;100412.00;;;;5106083;28;20044;-76
2022/01/20 06:43:33;;;;;;;0.00;0.00;;;;;22.60;100412.00;;;;5105330;28;20018;-77
2022/01/20 06:46:05;;;;;;;0.00;0.00;;;;;22.50;100398.00;;;;5106102;28;20040;-76
2022/01/20 06:49:08;;;;;;;0.00;0.00;;;;;22.50;100420.00;;;;5094784;28;20166;-75
2022/01/20 06:52:04;;;;;;;0.00;0.00;;;;;22.50;100421.00;;;;5103695;28;20402;-76
2022/01/20 06:54:35;;;;;;;0.00;0.00;;;;;22.50;100422.00;;;;5105406;28;20426;-76
2022/01/20 06:57:17;;;;;;;0.00;0.00;;;;;22.60;100406.00;;;;5107552;28;20569;-76
2022/01/20 06:59:46;;;;;;;0.00;0.00;;;;;22.50;100416.00;;;;5109642;28;20052;-76
2022/01/20 07:02:16;;;;;;;0.00;0.00;;;;;22.40;100421.00;;;;5108994;28;20040;-76
2022/01/20 07:04:47;;;;;;;0.00;0.00;;;;;22.50;100426.00;;;;5109574;28;20071;-76
2022/01/20 07:07:19;;;;;;;0.00;0.00;;;;;22.50;100433.00;;;;5109782;28;20139;-76
2022/01/20 07:10:07;;;;;;;0.00;0.00;;;;;22.50;100438.00;;;;5109528;28;20048;-76
2022/01/20 07:12:46;;;;;;;0.00;0.00;;;;;22.50;100427.00;;;;5109730;28;20054;-76
2022/01/20 07:15:17;;;;;;;0.00;0.00;;;;;22.60;100443.00;;;;5111136;28;20163;-76
2022/01/20 07:17:48;;;;;;;0.00;0.00;;;;;22.60;100440.00;;;;5108844;28;20090;-77
2022/01/20 07:20:21;;;;;;;0.00;0.00;;;;;22.70;100442.00;;;;5109224;28;20051;-75
2022/01/20 07:23:15;;;;;;;0.00;0.00;;;;;22.60;100436.00;;;;5109805;28;20442;-76
2022/01/20 07:25:56;;;;;;;0.00;0.00;;;;;22.60;100439.00;;;;5109719;28;20464;-75
2022/01/20 07:28:27;;;;;;;0.00;0.00;;;;;22.70;100442.00;;;;5109014;28;20108;-75
2022/01/20 07:30:56;;;;;;;0.00;0.00;;;;;22.60;100435.00;;;;5109624;28;20293;-75
2022/01/20 07:33:26;;;;;;;0.00;0.00;;;;;22.60;100435.00;;;;5109311;28;20078;-76
2022/01/20 07:35:58;;;;;;;0.00;0.00;;;;;22.60;100455.00;;;;5108797;28;20047;-77
2022/01/20 07:38:28;;;;;;;0.00;0.00;;;;;22.60;100446.00;;;;5108532;28;20623;-76
2022/01/20 07:40:58;;;;;;;0.00;0.00;;;;;22.60;100440.00;;;;5108731;28;20055;-76
2022/01/20 07:43:28;;;;;;;0.00;0.00;;;;;22.70;100437.00;;;;5108904;28;20494;-76
2022/01/20 07:46:00;;;;;;;0.00;0.00;;;;;22.60;100448.00;;;;5108768;28;20048;-76
2022/01/20 07:48:53;;;;;;;0.00;0.00;;;;;22.60;100443.00;;;;5110810;28;20131;-75
2022/01/20 07:51:23;;;;;;;0.00;0.00;;;;;22.60;100451.00;;;;5108930;28;20054;-76
2022/01/20 07:53:53;;;;;;;1.45;0.65;;;;;22.60;100456.00;;;;5108759;28;20048;-76
2022/01/20 07:56:22;;;;;;;0.00;0.00;;;;;22.60;100438.00;;;;5108034;28;20055;-76
2022/01/20 07:58:51;;;;;;;0.00;0.00;;;;;22.60;100443.00;;;;5108614;28;20581;-76
2022/01/20 08:01:24;;;;;;;0.00;0.00;;;;;22.60;100448.00;;;;5108515;28;20448;-76
2022/01/20 08:04:00;;;;;;;0.00;0.00;;;;;22.50;100456.00;;;;5108570;28;20099;-76
2022/01/20 08:06:30;;;;;;;0.00;0.00;;;;;22.30;100454.00;;;;5108150;28;20097;-75
2022/01/20 08:09:11;;;;;;;0.00;0.00;;;;;22.30;100455.00;;;;5108923;28;20172;-75
2022/01/20 08:11:59;;;;;;;0.00;0.00;;;;;22.20;100462.00;;;;5109598;28;20412;-76
2022/01/20 08:14:49;;;;;;;0.00;0.00;;;;;22.20;100475.00;;;;5101875;28;20073;-76
2022/01/20 08:17:30;;;;;;;0.00;0.00;;;;;22.10;100476.00;;;;5108287;28;20058;-75
2022/01/20 08:20:00;;;;;;;0.00;0.00;;;;;22.20;100467.00;;;;5108094;28;20051;-75
2022/01/20 08:22:34;;;;;;;0.00;0.00;;;;;22.20;100473.00;;;;5108270;28;20060;-76
2022/01/20 08:25:15;;;;;;;0.00;0.00;;;;;22.10;100466.00;;;;5110050;28;20040;-76
2022/01/20 08:27:48;;;;;;;0.00;0.00;;;;;22.00;100468.00;;;;5108331;28;20054;-76
2022/01/20 08:30:24;;;;;;;0.00;0.00;;;;;22.00;100466.00;;;;5107542;28;20051;-75
2022/01/20 08:32:59;;;;;;;0.00;0.00;;;;;22.00;100475.00;;;;5107428;28;20059;-75
2022/01/20 08:35:39;;;;;;;0.00;0.00;;;;;22.00;100489.00;;;;5107420;28;20047;-75
2022/01/20 08:38:12;;;;;;;0.00;0.00;;;;;22.00;100476.00;;;;5107724;28;20465;-75
2022/01/20 08:40:44;;;;;;;0.00;0.00;;;;;22.00;100476.00;;;;5109548;28;20048;-75
2022/01/20 08:43:13;;;;;;;0.00;0.00;;;;;21.90;100480.00;;;;5108112;28;20075;-75
2022/01/20 08:45:46;;;;;;;0.00;0.00;;;;;22.00;100470.00;;;;5107336;28;20044;-75
2022/01/20 08:48:18;;;;;;;0.00;0.00;;;;;22.00;100467.00;;;;5106983;28;20055;-76
2022/01/20 08:51:01;;;;;;;0.00;0.00;;;;;21.90;100478.00;;;;5108652;28;20052;-75
2022/01/20 08:53:39;;;;;;;0.00;0.00;;;;;21.90;100489.00;;;;5107489;28;20164;-76
2022/01/20 08:56:12;;;;;;;0.00;0.00;;;;;22.00;100477.00;;;;5107189;28;20047;-76
2022/01/20 08:58:42;;;;;;;;;;;;;22.00;100487.00;;;;5107802;28;20040;-75
2022/01/20 09:01:11;;;;;;;0.00;0.00;;;;;22.00;100480.00;;;;5107425;28;20374;-76
2022/01/20 09:03:43;;;;;;;0.00;0.00;;;;;22.00;100482.00;;;;5108860;28;20035;-75
2022/01/20 09:06:13;;;;;;;0.00;0.00;;;;;22.00;100476.00;;;;5107590;28;20059;-76
2022/01/20 09:08:48;;;;;;;0.00;0.00;;;;;22.10;100484.00;;;;5106822;28;20166;-76
2022/01/20 09:11:30;;;;;;;0.00;0.00;;;;;22.10;100474.00;;;;5107151;28;20047;-75
2022/01/20 09:16:54;;;;;;;0.00;0.00;;;;;22.20;100493.00;;;;5106559;28;20047;-75
2022/01/20 09:19:26;;;;;;;0.00;0.00;;;;;22.30;100492.00;;;;5106877;28;20039;-76
2022/01/20 09:21:59;;;;;;;0.00;0.00;;;;;22.40;100498.00;;;;5105872;28;20510;-75
2022/01/20 09:24:30;;;;;;;;;;;;;22.40;100518.00;;;;5107699;28;20043;-75
2022/01/20 09:27:02;;;;;;;0.00;0.00;;;;;22.50;100510.00;;;;5106783;28;19946;-75
2022/01/20 09:29:32;;;;;;;0.00;0.00;;;;;22.50;100508.00;;;;5106713;28;20074;-75
2022/01/20 09:32:07;;;;;;;0.00;0.00;;;;;22.60;100502.00;;;;5106064;28;20048;-76
2022/01/20 09:34:37;;;;;;;0.00;0.00;;;;;22.70;100499.00;;;;5106919;28;20241;-76
2022/01/20 09:37:08;;;;;;;;;;;;;22.80;100520.00;;;;5106870;28;20047;-76
2022/01/20 09:39:43;;;;;;;0.00;0.00;;;;;22.90;100511.00;;;;5106500;28;19923;-76
2022/01/20 09:42:34;;;;;;;0.00;0.00;;;;;23.10;100512.00;;;;5107738;28;20074;-76
2022/01/20 09:45:04;;;;;;;0.00;0.00;;;;;23.20;100508.00;;;;5108007;28;20118;-76
2022/01/20 09:47:37;;;;;;;0.00;0.00;;;;;23.80;100463.00;;;;5106149;28;20047;-76
2022/01/20 09:50:24;;;;;;;0.00;0.00;;;;;24.30;100500.00;;;;5105856;28;20648;-76
2022/01/20 09:53:24;;;;;;;0.00;0.00;;;;;24.20;100489.00;;;;5094052;28;20506;-75
2022/01/20 09:56:20;;;;;;;0.00;0.00;;;;;24.80;100469.00;;;;5082991;28;20071;-77
2022/01/20 09:58:50;;;;;;;0.00;0.00;;;;;25.50;100430.00;;;;5106151;28;20064;-76
2022/01/20 10:01:43;;;;;;;0.00;0.00;;;;;27.00;100436.00;;;;5107603;28;20046;-76
2022/01/20 10:04:31;;;;;;;0.00;0.00;;;;;26.80;100449.00;;;;5106024;28;20075;-76
2022/01/20 10:07:21;;;;;;;0.00;0.00;;;;;28.50;100364.00;;;;5106230;28;20151;-77
2022/01/20 10:09:57;;;;;;;0.00;0.00;;;;;28.00;100495.00;;;;5105066;28;20047;-77
2022/01/20 10:12:38;;;;;;;0.00;0.00;;;;;26.70;100492.00;;;;5103620;28;20055;-76
2022/01/20 10:15:11;;;;;;;0.28;0.28;;;;;26.60;100515.00;;;;5106166;28;20069;-76
2022/01/20 10:18:06;;;;;;;0.00;0.00;;;;;25.90;100530.00;;;;5105494;28;20645;-75
2022/01/20 10:20:51;;;;;;;0.00;0.00;;;;;25.60;100533.00;;;;5105221;28;20822;-76
2022/01/20 10:23:47;;;;;;;0.00;0.00;;;;;25.60;100545.00;;;;5105325;28;20066;-76
2022/01/20 10:26:35;;;;;;;0.00;0.00;;;;;25.50;100537.00;;;;5107313;28;20032;-76
2022/01/20 10:29:10;;;;;;;0.00;0.00;;;;;25.60;100542.00;;;;5105961;28;20048;-77
2022/01/20 10:31:46;;;;;;;0.00;0.00;;;;;25.70;100548.00;;;;5104998;28;20059;-77
2022/01/20 10:34:37;;;;;;;0.00;0.00;;;;;26.30;100540.00;;;;5105096;28;20051;-77
2022/01/20 10:37:23;;;;;;;0.00;0.00;;;;;27.60;100523.00;;;;5105338;28;20058;-77
2022/01/20 10:40:16;;;;;;;0.00;0.00;;;;;29.90;100393.00;;;;5105685;28;20051;-77
2022/01/20 10:42:51;;;;;;;0.00;0.00;;;;;32.70;100386.00;;;;5088763;28;20514;-77
2022/01/20 10:45:24;;;;;;;0.00;0.00;;;;;33.50;100392.00;;;;5105244;28;20043;-77
2022/01/20 10:47:59;;;;;;;0.00;0.00;;;;;33.00;100465.00;;;;5104709;28;20048;-75
2022/01/20 10:50:36;;;;;;;0.00;0.00;;;;;30.20;100536.00;;;;5105213;28;20066;-76
2022/01/20 10:53:22;;;;;;;0.00;0.00;;;;;28.70;100556.00;;;;5104754;28;20109;-76
2022/01/20 10:56:07;;;;;;;0.00;0.00;;;;;28.40;100560.00;;;;5105093;28;20506;-76
2022/01/20 10:58:36;;;;;;;0.00;0.00;;;;;30.90;100488.00;;;;5105224;28;20060;-75
2022/01/20 11:01:17;;;;;;;0.00;0.00;;;;;29.50;100559.00;;;;5105263;28;20155;-75
2022/01/20 11:03:47;;;;;;;0.00;0.00;;;;;28.90;100545.00;;;;5104138;28;20043;-75
2022/01/20 11:06:20;;;;;;;0.00;0.00;;;;;28.90;100561.00;;;;5088800;28;20051;-75
2022/01/20 11:09:07;;;;;;;0.38;0.25;;;;;28.40;100582.00;;;;5105153;28;20050;-75
2022/01/20 11:11:57;;;;;;;0.00;0.00;;;;;29.00;100543.00;;;;5105686;28;20059;-76
2022/01/20 11:14:47;;;;;;;0.00;0.00;;;;;31.30;100485.00;;;;5104753;28;20117;-77
2022/01/20 11:17:25;;;;;;;0.00;0.00;;;;;34.20;100425.00;;;;5105309;28;20039;-77
2022/01/20 11:20:02;;;;;;;0.00;0.00;;;;;35.60;100420.00;;;;5104724;28;20079;-76
2022/01/20 11:22:34;;;;;;;0.00;0.00;;;;;36.20;100428.00;;;;5104822;28;20046;-77
2022/01/20 11:25:15;;;;;;;0.00;0.00;;;;;36.30;100427.00;;;;5103028;28;20122;-77
2022/01/20 11:28:10;;;;;;;0.00;0.00;;;;;36.70;100418.00;;;;5104286;28;20047;-77
2022/01/20 11:30:59;;;;;;;0.00;0.00;;;;;36.50;100425.00;;;;5104498;28;20040;-77
2022/01/20 11:33:52;;;;;;;0.00;0.00;;;;;36.60;100409.00;;;;5097294;28;20056;-77
2022/01/20 11:36:31;;;;;;;0.00;0.00;;;;;36.40;100409.00;;;;5106350;28;20562;-77
2022/01/20 11:39:25;;;;;;;0.75;0.75;;;;;36.40;100408.00;;;;5105348;28;20077;-77
2022/01/20 11:41:55;;;;;;;0.00;0.00;;;;;36.20;100387.00;;;;5106775;28;20044;-78
2022/01/20 11:44:31;;;;;;;0.00;0.00;;;;;36.20;100379.00;;;;5107791;28;20044;-77
2022/01/20 11:47:09;;;;;;;0.00;0.00;;;;;36.30;100374.00;;;;5109975;28;20506;-78
2022/01/20 11:49:43;;;;;;;0.00;0.00;;;;;36.00;100384.00;;;;5109732;28;20139;-79
2022/01/20 11:52:27;;;;;;;0.00;0.00;;;;;35.80;100399.00;;;;5110155;28;20510;-77
2022/01/20 11:55:18;;;;;;;0.13;0.00;;;;;35.50;100418.00;;;;5109114;28;20040;-77
2022/01/20 11:57:48;;;;;;;0.00;0.00;;;;;34.00;100498.00;;;;5109134;28;20055;-78
2022/01/20 12:00:24;;;;;;;0.00;0.00;;;;;33.60;100410.00;;;;5109195;28;20059;-78
2022/01/20 12:02:54;;;;;;;0.80;0.80;;;;;33.00;100572.00;;;;5109230;28;20073;-78
2022/01/20 12:05:34;;;;;;;0.00;0.00;;;;;32.70;100459.00;;;;5107823;28;20082;-78
2022/01/20 12:08:36;;;;;;;0.00;0.00;;;;;34.20;100498.00;;;;5096992;28;20063;-77
2022/01/20 12:11:09;;;;;;;0.00;0.00;;;;;33.10;100579.00;;;;5110382;28;20040;-77
2022/01/20 12:13:50;;;;;;;0.10;0.10;;;;;32.80;100553.00;;;;5109769;28;20072;-78
2022/01/20 12:16:22;;;;;;;11.77;0.63;;;;;32.50;100569.00;;;;5109432;28;20513;-77
2022/01/20 12:18:55;;;;;;;0.00;0.00;;;;;32.80;100552.00;;;;5109781;28;20047;-78
2022/01/20 12:21:25;;;;;;;375.70;49.33;;;;;32.40;100570.00;;;;5109594;28;20043;-77
2022/01/20 12:23:56;;;;;;;0.00;0.00;;;;;32.10;100575.00;;;;5109530;28;20488;-77
2022/01/20 12:26:25;;;;;;;0.00;0.00;;;;;32.00;100571.00;;;;5109192;28;20456;-77
2022/01/20 12:29:03;;;;;;;0.13;0.13;;;;;32.10;100567.00;;;;5109350;28;21185;-77
2022/01/20 12:31:45;;;;;;;0.20;0.10;;;;;32.00;100565.00;;;;5109105;28;20498;-78
2022/01/20 12:34:16;;;;;;;0.00;0.00;;;;;32.10;100565.00;;;;5109703;28;20660;-77
2022/01/20 12:36:58;;;;;;;0.00;0.00;;;;;32.00;100520.00;;;;5109770;28;20039;-77
2022/01/20 12:39:32;;;;;;;0.00;0.00;;;;;33.10;100543.00;;;;5109435;28;20048;-77
2022/01/20 12:42:09;;;;;;;0.20;0.10;;;;;34.20;100501.00;;;;5109224;28;20050;-77
2022/01/20 12:44:50;;;;;;;0.00;0.00;;;;;34.20;100560.00;;;;5109283;28;20044;-78
2022/01/20 12:47:28;;;;;;;0.00;0.00;;;;;33.20;100552.00;;;;5107917;28;20051;-77
2022/01/20 12:50:00;;;;;;;0.22;0.22;;;;;33.50;100549.00;;;;5108748;28;20470;-77
2022/01/20 12:52:31;;;;;;;0.00;0.00;;;;;33.50;100557.00;;;;5108646;28;20448;-78
2022/01/20 12:55:00;;;;;;;0.00;0.00;;;;;33.30;100558.00;;;;5109201;28;20048;-77
2022/01/20 12:57:30;;;;;;;0.00;0.00;;;;;33.20;100543.00;;;;5108717;28;20063;-78
2022/01/20 12:59:59;;;;;;;0.00;0.00;;;;;33.80;100527.00;;;;5108754;28;20043;-78
2022/01/20 13:02:32;;;;;;;0.00;0.00;;;;;34.00;100557.00;;;;5108876;28;20135;-78
2022/01/20 13:05:06;;;;;;;0.00;0.00;;;;;33.60;100558.00;;;;5108190;28;20043;-78
2022/01/20 13:07:38;;;;;;;0.05;0.03;;;;;33.60;100551.00;;;;5108928;28;21180;-78
2022/01/20 13:10:33;;;;;;;0.00;0.00;;;;;34.00;100551.00;;;;5108888;28;20040;-78
2022/01/20 13:13:05;;;;;;;0.00;0.00;;;;;34.50;100525.00;;;;5108507;28;20429;-78
2022/01/20 13:15:35;;;;;;;0.00;0.00;;;;;35.30;100477.00;;;;5108446;28;20399;-78
2022/01/20 13:18:12;;;;;;;0.00;0.00;;;;;35.80;100533.00;;;;5108583;28;20117;-78
2022/01/20 13:20:54;;;;;;;0.00;0.00;;;;;35.70;100532.00;;;;5109071;28;20502;-78
2022/01/20 13:24:12;;;;;;;0.10;0.10;;;;;35.20;100531.00;;;;5108017;28;20050;-78
2022/01/20 13:26:18;;;;;;;0.00;0.00;;;;;35.80;100488.00;;;;5100070;28;20493;-78
2022/01/20 13:28:58;;;;;;;0.00;0.00;;;;;36.00;100510.00;;;;5108511;28;20039;-77
2022/01/20 13:31:38;;;;;;;0.10;0.10;;;;;35.40;100529.00;;;;5107904;28;20031;-77
2022/01/20 13:34:13;;;;;;;0.90;0.87;;;;;35.70;100465.00;;;;5108539;28;20043;-77
2022/01/20 13:36:48;;;;;;;0.00;0.00;;;;;35.90;100505.00;;;;5107876;28;20334;-76
2022/01/20 13:39:49;;;;;;;0.13;0.10;;;;;35.00;100540.00;;;;5107650;28;20040;-77
2022/01/20 13:42:31;;;;;;;0.00;0.00;;;;;34.50;100559.00;;;;5098036;28;20067;-76
2022/01/20 13:45:15;;;;;;;0.00;0.00;;;;;34.20;100541.00;;;;5107708;28;20566;-77
2022/01/20 13:48:02;;;;;;;0.00;0.00;;;;;33.90;100541.00;;;;5107796;28;20285;-77
2022/01/20 13:50:38;;;;;;;0.00;0.00;;;;;34.10;100546.00;;;;5107864;28;20090;-77
2022/01/20 13:53:18;;;;;;;0.55;0.55;;;;;34.10;100548.00;;;;5108147;28;20036;-77